Time;durP1;ratioP1;P1;durP2;ratioP2;P2;SDS_P1;SDS_P2;PMS_P1;PMS_P2;Temp;Humidity;BMP_temperature;BMP_pressure;BME280_temperature;BME280_humidity;BME280_pressure;Samples;Min_cycle;Max_cycle;Signal;HPM_P1;HPM_P2
2021/06/02 00:01:22;;;;;;;22.55;10.98;;;16.50;95.70;;;;;;4857999;29;20061;-92
2021/06/02 00:03:54;;;;;;;26.83;11.18;;;16.70;96.20;;;;;;4875690;29;20065;-93
2021/06/02 00:06:28;;;;;;;24.97;11.50;;;16.40;96.60;;;;;;4860599;29;20061;-92
2021/06/02 00:09:06;;;;;;;20.05;10.48;;;16.40;97.00;;;;;;4871070;29;20067;-92
2021/06/02 00:11:56;;;;;;;23.17;11.82;;;16.80;97.50;;;;;;4856342;29;20063;-92
2021/06/02 00:14:30;;;;;;;19.25;9.60;;;16.30;97.70;;;;;;4877483;29;20060;-92
2021/06/02 00:17:10;;;;;;;23.13;9.60;;;16.30;98.40;;;;;;4874412;29;20072;-93
2021/06/02 00:19:41;;;;;;;22.17;10.40;;;16.00;98.70;;;;;;4857737;29;20048;-93
2021/06/02 00:22:16;;;;;;;24.23;10.23;;;16.20;99.40;;;;;;4877429;29;20063;-92
2021/06/02 00:24:46;;;;;;;23.42;11.88;;;16.10;99.50;;;;;;4867120;29;20064;-92
2021/06/02 00:27:34;;;;;;;20.88;10.75;;;16.10;99.90;;;;;;4876002;29;20045;-92
2021/06/02 00:30:10;;;;;;;26.20;10.95;;;16.00;99.90;;;;;;4889794;29;20057;-92
2021/06/02 00:33:06;;;;;;;20.48;10.18;;;16.10;99.90;;;;;;4869958;29;20049;-92
2021/06/02 00:35:53;;;;;;;19.75;10.10;;;16.00;99.90;;;;;;4893036;29;20056;-93
2021/06/02 00:38:35;;;;;;;25.75;11.23;;;16.00;99.90;;;;;;4885507;29;20059;-92
2021/06/02 00:41:29;;;;;;;21.50;10.05;;;16.00;99.90;;;;;;4890583;29;20069;-92
2021/06/02 00:44:25;;;;;;;24.50;11.48;;;15.90;99.90;;;;;;4893004;29;20048;-92
2021/06/02 00:47:05;;;;;;;23.20;10.50;;;15.60;99.90;;;;;;4872115;29;20072;-92
2021/06/02 00:49:51;;;;;;;23.92;11.98;;;15.40;99.90;;;;;;4891155;29;20059;-92
2021/06/02 00:52:51;;;;;;;20.17;10.90;;;15.70;99.90;;;;;;4910251;29;20093;-92
2021/06/02 00:55:33;;;;;;;20.65;10.93;;;15.70;99.90;;;;;;4864163;29;20061;-93
2021/06/02 00:58:12;;;;;;;23.13;10.90;;;15.60;99.90;;;;;;4836303;29;20056;-92
2021/06/02 01:00:48;;;;;;;;;;;15.70;99.90;;;;;;4885865;29;20052;-93
2021/06/02 01:03:36;;;;;;;24.88;11.40;;;15.40;99.90;;;;;;4878265;29;19947;-92
2021/06/02 01:06:33;;;;;;;27.27;10.95;;;15.50;99.90;;;;;;4880876;29;20587;-92
2021/06/02 01:09:20;;;;;;;24.30;10.63;;;15.50;99.90;;;;;;4866497;29;20045;-92
2021/06/02 01:11:57;;;;;;;26.52;10.98;;;15.50;99.90;;;;;;4883475;29;20044;-91
2021/06/02 01:14:37;;;;;;;19.90;10.65;;;15.30;99.90;;;;;;4881523;29;20051;-92
2021/06/02 01:17:29;;;;;;;21.80;9.43;;;15.30;99.90;;;;;;4894921;29;20055;-92
2021/06/02 01:20:27;;;;;;;21.52;10.52;;;14.30;99.90;;;;;;4888247;29;20065;-91
2021/06/02 01:23:16;;;;;;;20.23;9.60;;;15.30;99.90;;;;;;4893585;29;20042;-91
2021/06/02 01:26:13;;;;;;;22.65;11.38;;;15.20;99.90;;;;;;4902823;29;20801;-91
2021/06/02 01:28:49;;;;;;;20.92;9.88;;;15.10;99.90;;;;;;4898888;29;20060;-93
2021/06/02 01:31:36;;;;;;;23.17;10.90;;;15.10;99.90;;;;;;4863420;29;20048;-91
2021/06/02 01:34:38;;;;;;;22.35;10.63;;;15.10;99.90;;;;;;4900587;29;20056;-92
2021/06/02 01:37:29;;;;;;;20.60;11.63;;;15.00;99.90;;;;;;4913438;29;20057;-92
2021/06/02 01:40:56;;;;;;;21.88;10.80;;;15.00;99.90;;;;;;4885779;29;20068;-92
2021/06/02 01:43:52;;;;;;;15.57;8.68;;;14.90;99.90;;;;;;4845188;29;20056;-92
2021/06/02 01:47:04;;;;;;;22.80;9.68;;;14.90;99.90;;;;;;4876524;29;20057;-91
2021/06/02 01:50:13;;;;;;;22.55;11.02;;;14.80;99.90;;;;;;4876095;29;20061;-92
2021/06/02 01:53:22;;;;;;;20.85;8.65;;;14.80;99.90;;;;;;4843191;29;20057;-91
2021/06/02 01:56:26;;;;;;;22.05;9.55;;;14.70;99.90;;;;;;4844880;29;20064;-92
2021/06/02 01:59:22;;;;;;;19.98;10.38;;;14.70;99.90;;;;;;4808757;29;20060;-92
2021/06/02 02:02:22;;;;;;;15.82;8.80;;;14.60;99.90;;;;;;4810903;29;20065;-91
2021/06/02 02:05:48;;;;;;;21.63;9.45;;;14.60;99.90;;;;;;4793473;29;20046;-92
2021/06/02 02:08:26;;;;;;;19.95;9.65;;;13.20;99.90;;;;;;4815445;29;20062;-92
2021/06/02 02:11:34;;;;;;;22.20;9.05;;;14.50;99.90;;;;;;4808818;29;20054;-90
2021/06/02 02:14:55;;;;;;;18.85;8.57;;;14.50;99.90;;;;;;4809200;29;20050;-92
2021/06/02 02:17:50;;;;;;;19.95;10.40;;;14.40;99.90;;;;;;4849085;29;20046;-93
2021/06/02 02:20:49;;;;;;;17.92;9.55;;;14.40;99.90;;;;;;4822515;29;20058;-91
2021/06/02 02:24:03;;;;;;;19.10;7.88;;;14.30;99.90;;;;;;4838459;29;20050;-92
2021/06/02 02:27:19;;;;;;;21.27;9.50;;;13.60;99.90;;;;;;4838716;29;20060;-91
2021/06/02 02:30:34;;;;;;;23.27;8.20;;;14.10;99.90;;;;;;4839191;29;20058;-91
2021/06/02 02:33:23;;;;;;;17.25;10.10;;;14.20;99.90;;;;;;4909785;29;20053;-92
2021/06/02 02:36:11;;;;;;;22.45;9.70;;;14.00;99.90;;;;;;4890187;29;20057;-90
2021/06/02 02:39:23;;;;;;;17.98;9.70;;;14.00;99.90;;;;;;4893872;29;20580;-92
2021/06/02 02:42:16;;;;;;;18.75;8.95;;;14.00;99.90;;;;;;4847036;29;20058;-91
2021/06/02 02:44:53;;;;;;;17.40;8.48;;;13.90;99.90;;;;;;4868679;29;20438;-91
2021/06/02 02:47:44;;;;;;;18.10;9.50;;;13.90;99.90;;;;;;4877157;29;20068;-90
2021/06/02 02:50:33;;;;;;;22.27;9.38;;;13.90;99.90;;;;;;4885844;29;20053;-91
2021/06/02 02:53:57;;;;;;;17.95;9.27;;;13.30;99.90;;;;;;4854718;29;20056;-92
2021/06/02 02:57:27;;;;;;;15.63;7.97;;;13.80;99.90;;;;;;4884042;29;20055;-90
2021/06/02 03:00:12;;;;;;;17.08;9.35;;;13.80;99.90;;;;;;4867545;29;20052;-90
2021/06/02 03:02:57;;;;;;;21.92;9.90;;;13.80;99.90;;;;;;4887994;29;20056;-91
2021/06/02 03:05:56;;;;;;;23.00;9.77;;;13.70;99.90;;;;;;4868554;29;20547;-91
2021/06/02 03:08:49;;;;;;;20.98;9.25;;;13.60;99.90;;;;;;4888774;29;20055;-90
2021/06/02 03:12:15;;;;;;;23.95;9.45;;;15.10;99.90;;;;;;4872505;29;20053;-91
2021/06/02 03:15:05;;;;;;;16.67;8.63;;;13.50;99.90;;;;;;4893687;24;20037;-90
2021/06/02 03:18:16;;;;;;;17.55;8.18;;;12.50;99.90;;;;;;4838741;29;20064;-90
2021/06/02 03:21:38;;;;;;;21.95;8.80;;;13.50;99.90;;;;;;4855839;29;20066;-91
2021/06/02 03:25:02;;;;;;;14.95;7.85;;;13.30;99.90;;;;;;4837765;29;20050;-91
2021/06/02 03:28:31;;;;;;;20.42;9.55;;;13.20;99.90;;;;;;4842170;29;20059;-91
2021/06/02 03:31:56;;;;;;;12.50;7.03;;;13.20;99.90;;;;;;4750484;30;20056;-92
2021/06/02 03:35:15;;;;;;;17.38;9.15;;;13.10;99.90;;;;;;4832535;29;20054;-91
2021/06/02 03:38:08;;;;;;;28.33;9.80;;;12.90;99.90;;;;;;4778790;30;20183;-90
2021/06/02 03:41:25;;;;;;;19.85;8.63;;;12.90;99.90;;;;;;4845863;29;20049;-91
2021/06/02 03:44:15;;;;;;;20.33;9.73;;;12.80;99.90;;;;;;4832718;29;20095;-91
2021/06/02 03:47:20;;;;;;;21.88;10.27;;;12.80;99.90;;;;;;4814905;29;20062;-91
2021/06/02 03:50:23;;;;;;;20.30;9.90;;;12.70;99.90;;;;;;4833611;29;20058;-91
2021/06/02 03:53:29;;;;;;;19.17;9.73;;;12.10;99.90;;;;;;4793164;29;20060;-90
2021/06/02 03:57:03;;;;;;;22.40;9.52;;;12.70;99.90;;;;;;4827522;29;20054;-91
2021/06/02 04:00:14;;;;;;;21.35;10.07;;;12.60;99.90;;;;;;4842204;29;20104;-89
2021/06/02 04:03:25;;;;;;;20.77;9.68;;;12.60;99.90;;;;;;4839606;29;20064;-91
2021/06/02 04:06:19;;;;;;;22.10;11.43;;;12.70;99.90;;;;;;4835409;29;20054;-91
2021/06/02 04:09:23;;;;;;;20.60;9.50;;;12.70;99.90;;;;;;4813799;29;20054;-90
2021/06/02 04:12:21;;;;;;;21.02;9.65;;;12.70;99.90;;;;;;4791831;29;20051;-90
2021/06/02 04:15:06;;;;;;;20.60;10.73;;;12.70;99.90;;;;;;4851451;23;20073;-90
2021/06/02 04:18:01;;;;;;;18.08;9.60;;;12.70;99.90;;;;;;4891912;29;20055;-90
2021/06/02 04:20:36;;;;;;;19.88;9.90;;;12.70;99.90;;;;;;4911543;29;20052;-90
2021/06/02 04:23:29;;;;;;;26.02;11.32;;;12.90;99.90;;;;;;4899736;29;20044;-90
2021/06/02 04:26:04;;;;;;;20.95;10.77;;;12.70;99.90;;;;;;4883549;29;20060;-91
2021/06/02 04:29:06;;;;;;;22.08;10.13;;;12.80;99.90;;;;;;4886226;29;20048;-90
2021/06/02 04:32:10;;;;;;;24.42;11.68;;;12.80;99.90;;;;;;4884464;29;20057;-90
2021/06/02 04:35:02;;;;;;;25.00;11.93;;;12.80;99.90;;;;;;4877467;29;20049;-92
2021/06/02 04:37:41;;;;;;;25.05;12.55;;;12.70;99.90;;;;;;4903193;29;20056;-90
2021/06/02 04:40:15;;;;;;;31.20;12.10;;;12.70;99.90;;;;;;4877334;29;20369;-92
2021/06/02 04:43:39;;;;;;;27.73;12.85;;;12.80;99.90;;;;;;4886589;29;20048;-90
2021/06/02 04:47:08;;;;;;;32.55;12.52;;;14.10;99.90;;;;;;4896089;29;20040;-90
2021/06/02 04:50:23;;;;;;;33.10;12.55;;;12.90;99.90;;;;;;4898241;29;20057;-91
2021/06/02 04:53:41;;;;;;;30.63;14.88;;;13.00;99.90;;;;;;4865446;29;20061;-90
2021/06/02 04:56:36;;;;;;;26.98;13.63;;;13.00;99.90;;;;;;4866529;29;20061;-90
2021/06/02 04:59:43;;;;;;;27.95;14.73;;;13.10;99.90;;;;;;4931987;29;20288;-90
2021/06/02 05:02:53;;;;;;;28.55;13.07;;;13.50;99.90;;;;;;4871564;29;20052;-91
2021/06/02 05:05:44;;;;;;;29.35;14.57;;;13.30;99.90;;;;;;4884944;29;20055;-89
2021/06/02 05:08:45;;;;;;;24.25;14.15;;;14.30;99.90;;;;;;4900189;29;20044;-91
2021/06/02 05:11:40;;;;;;;27.92;14.13;;;13.40;99.90;;;;;;4901548;29;20056;-90
2021/06/02 05:15:07;;;;;;;34.47;13.93;;;13.50;99.90;;;;;;4880729;29;20067;-90
2021/06/02 05:17:57;;;;;;;31.23;15.75;;;13.80;99.90;;;;;;4895118;29;20049;-92
2021/06/02 05:24:12;;;;;;;37.90;14.15;;;13.20;99.90;;;;;;4895007;29;20733;-90
2021/06/02 05:27:14;;;;;;;32.25;13.40;;;13.80;99.90;;;;;;4903494;29;20057;-91
2021/06/02 05:30:11;;;;;;;29.58;15.20;;;13.90;99.90;;;;;;4945797;23;20045;-93
2021/06/02 05:32:49;;;;;;;32.42;13.75;;;13.90;99.90;;;;;;4898980;28;20031;-90
2021/06/02 05:35:43;;;;;;;26.98;14.05;;;14.10;99.90;;;;;;4895566;29;20068;-91
2021/06/02 05:38:32;;;;;;;;;;;14.10;99.90;;;;;;4894916;29;20057;-90
2021/06/02 05:41:09;;;;;;;31.17;15.82;;;14.20;99.90;;;;;;4867317;29;19928;-90
2021/06/02 05:44:11;;;;;;;29.13;13.85;;;14.20;99.90;;;;;;4878942;29;20053;-91
2021/06/02 05:46:57;;;;;;;41.55;17.33;;;14.20;99.90;;;;;;4843410;29;20053;-91
2021/06/02 05:49:53;;;;;;;29.10;13.43;;;14.30;99.90;;;;;;4858979;29;20083;-90
2021/06/02 05:52:43;;;;;;;29.85;14.35;;;14.30;99.90;;;;;;4887085;29;20052;-90
2021/06/02 05:55:34;;;;;;;33.63;12.75;;;14.40;99.90;;;;;;4860779;29;20527;-91
2021/06/02 05:58:42;;;;;;;32.83;14.70;;;14.40;99.90;;;;;;4868596;29;20057;-90
2021/06/02 06:01:32;;;;;;;28.80;13.75;;;14.50;99.90;;;;;;4881854;29;20053;-92
2021/06/02 06:04:03;;;;;;;28.00;14.82;;;14.60;99.90;;;;;;4862365;29;20064;-91
2021/06/02 06:06:55;;;;;;;27.80;13.27;;;14.70;99.90;;;;;;4854838;29;20056;-92
2021/06/02 06:10:01;;;;;;;30.83;12.80;;;14.80;99.90;;;;;;4854066;29;20061;-91
2021/06/02 06:12:45;;;;;;;34.10;13.52;;;14.90;99.90;;;;;;4853502;29;20061;-93
2021/06/02 06:15:52;;;;;;;31.23;13.80;;;15.10;99.90;;;;;;4884402;29;20077;-91
2021/06/02 06:18:23;;;;;;;26.35;13.75;;;14.50;99.90;;;;;;4868987;29;20056;-92
2021/06/02 06:21:18;;;;;;;;;;;15.20;99.90;;;;;;4911856;29;20636;-92
2021/06/02 06:24:02;;;;;;;44.10;14.63;;;14.30;99.90;;;;;;4864735;29;19935;-91
2021/06/02 06:26:47;;;;;;;30.63;14.27;;;15.40;99.90;;;;;;4903572;29;20067;-92
2021/06/02 06:29:28;;;;;;;29.75;14.10;;;15.50;99.90;;;;;;4871398;29;20053;-92
2021/06/02 06:32:00;;;;;;;25.45;13.50;;;15.60;99.90;;;;;;4872687;29;20057;-92
2021/06/02 06:34:33;;;;;;;33.92;16.13;;;14.90;99.90;;;;;;4849153;29;20060;-91
2021/06/02 06:37:03;;;;;;;26.02;13.88;;;15.80;99.90;;;;;;4902650;29;20072;-92
2021/06/02 06:39:42;;;;;;;29.45;13.98;;;15.90;99.90;;;;;;4886486;29;20052;-92
2021/06/02 06:42:20;;;;;;;33.45;13.65;;;16.00;99.90;;;;;;4889459;29;20068;-92
2021/06/02 06:44:53;;;;;;;31.45;14.48;;;16.10;99.90;;;;;;4873171;29;20057;-91
2021/06/02 06:47:23;;;;;;;30.48;14.40;;;16.20;99.90;;;;;;4870581;29;20064;-93
2021/06/02 06:49:57;;;;;;;32.90;15.30;;;16.20;99.90;;;;;;4878788;29;20056;-92
2021/06/02 06:52:27;;;;;;;31.15;14.43;;;16.30;99.90;;;;;;4874243;29;20059;-92
2021/06/02 06:55:00;;;;;;;35.75;16.42;;;16.40;99.90;;;;;;4871225;29;20045;-92
2021/06/02 06:57:35;;;;;;;37.72;13.25;;;16.60;99.90;;;;;;4875640;29;20053;-92
2021/06/02 07:00:08;;;;;;;31.00;12.52;;;16.60;99.90;;;;;;4871024;29;20053;-92
2021/06/02 07:02:48;;;;;;;33.45;13.27;;;16.70;99.90;;;;;;4869829;29;20287;-92
2021/06/02 07:05:19;;;;;;;28.63;13.27;;;17.70;99.90;;;;;;4855720;29;20052;-92
2021/06/02 07:07:50;;;;;;;31.33;14.23;;;16.90;99.90;;;;;;4893979;29;20048;-92
2021/06/02 07:10:23;;;;;;;26.17;13.30;;;17.10;99.90;;;;;;4901318;29;20060;-91
2021/06/02 07:12:52;;;;;;;30.42;14.18;;;17.20;99.90;;;;;;4885620;29;20052;-92
2021/06/02 07:15:27;;;;;;;30.92;14.10;;;17.30;99.90;;;;;;4890990;29;20056;-91
2021/06/02 07:18:00;;;;;;;26.20;14.02;;;17.40;99.90;;;;;;4899251;29;20059;-93
2021/06/02 07:20:30;;;;;;;32.72;13.70;;;17.50;99.90;;;;;;4882221;29;20048;-93
2021/06/02 07:23:03;;;;;;;27.90;13.48;;;17.60;99.90;;;;;;4867547;29;20541;-93
2021/06/02 07:25:32;;;;;;;40.05;13.95;;;17.70;99.90;;;;;;4866326;29;20056;-93
2021/06/02 07:28:07;;;;;;;28.25;14.65;;;18.60;99.90;;;;;;4866860;29;20056;-93
2021/06/02 07:30:36;;;;;;;28.13;12.02;;;17.90;99.90;;;;;;4867377;29;20063;-92
2021/06/02 07:33:04;;;;;;;24.80;12.45;;;18.10;99.90;;;;;;4869194;29;20068;-93
2021/06/02 07:35:34;;;;;;;31.90;13.63;;;18.20;99.90;;;;;;4870751;29;20079;-93
2021/06/02 07:38:02;;;;;;;30.25;12.27;;;18.30;99.90;;;;;;4902074;29;20519;-93
2021/06/02 07:40:31;;;;;;;24.60;10.68;;;18.30;99.90;;;;;;4885673;29;20056;-93
2021/06/02 07:42:59;;;;;;;24.70;11.90;;;18.50;99.90;;;;;;4868941;29;20071;-93
2021/06/02 07:45:27;;;;;;;22.17;9.50;;;18.60;99.90;;;;;;4868943;29;20061;-93
2021/06/02 07:47:58;;;;;;;21.83;11.38;;;18.80;99.90;;;;;;4883412;29;20056;-93
2021/06/02 07:50:27;;;;;;;28.73;11.90;;;18.90;99.90;;;;;;4852310;29;20048;-93
2021/06/02 07:52:55;;;;;;;28.05;13.82;;;19.00;99.90;;;;;;4872624;29;20064;-94
2021/06/02 07:55:33;;;;;;;26.08;11.68;;;19.10;99.90;;;;;;4854390;29;20444;-93
2021/06/02 07:58:02;;;;;;;23.50;10.68;;;19.20;99.90;;;;;;4868902;29;20057;-94
2021/06/02 08:00:33;;;;;;;32.10;10.75;;;19.40;99.90;;;;;;4869248;29;20252;-94
2021/06/02 08:03:01;;;;;;;27.80;10.50;;;19.40;99.90;;;;;;4870517;29;20170;-94
2021/06/02 08:05:29;;;;;;;22.00;9.73;;;19.50;99.90;;;;;;4856373;29;20048;-94
2021/06/02 08:07:57;;;;;;;26.08;9.52;;;19.60;99.90;;;;;;4868395;29;20063;-94
2021/06/02 08:10:26;;;;;;;30.00;10.93;;;19.70;99.90;;;;;;4869679;29;20049;-94
2021/06/02 08:12:54;;;;;;;24.13;10.32;;;19.80;99.90;;;;;;4868467;29;20052;-93
2021/06/02 08:15:22;;;;;;;24.63;10.48;;;19.90;99.90;;;;;;4882030;29;20056;-94
2021/06/02 08:17:50;;;;;;;21.00;9.55;;;20.00;99.90;;;;;;4883496;29;20055;-93
2021/06/02 08:20:18;;;;;;;22.85;8.57;;;20.00;99.90;;;;;;4882056;29;20350;-94
2021/06/02 08:22:47;;;;;;;19.10;10.73;;;20.20;99.90;;;;;;4869058;29;20568;-94
2021/06/02 08:25:17;;;;;;;21.17;10.07;;;20.20;99.90;;;;;;4898153;29;20052;-94
2021/06/02 08:27:46;;;;;;;22.92;9.90;;;20.30;99.90;;;;;;4852393;29;20897;-93
2021/06/02 08:30:18;;;;;;;19.15;9.75;;;20.30;99.90;;;;;;4869832;29;20275;-95
2021/06/02 08:32:47;;;;;;;26.48;10.10;;;20.30;99.90;;;;;;4860565;29;20052;-94
2021/06/02 08:35:33;;;;;;;27.65;9.05;;;20.40;99.90;;;;;;4877002;29;20048;-94
2021/06/02 08:38:15;;;;;;;18.38;9.00;;;20.50;99.90;;;;;;4894117;29;20051;-94
2021/06/02 08:40:46;;;;;;;21.65;9.50;;;20.50;99.90;;;;;;4907787;29;20382;-94
2021/06/02 08:43:28;;;;;;;20.30;9.02;;;20.60;99.90;;;;;;4861610;29;20052;-94
2021/06/02 08:46:10;;;;;;;21.98;9.52;;;20.70;99.90;;;;;;4856798;29;20060;-95
2021/06/02 08:48:51;;;;;;;25.17;8.43;;;20.90;99.90;;;;;;4841493;29;20056;-94
2021/06/02 08:51:22;;;;;;;20.80;11.13;;;21.00;99.90;;;;;;4889848;29;20063;-95
2021/06/02 08:53:52;;;;;;;23.02;10.20;;;21.10;99.90;;;;;;4877349;29;20057;-94
2021/06/02 08:56:24;;;;;;;23.27;10.38;;;21.10;99.90;;;;;;4886656;29;20056;-94
2021/06/02 08:58:53;;;;;;;26.05;10.15;;;21.20;99.90;;;;;;4888538;29;20059;-94
2021/06/02 09:01:28;;;;;;;22.00;9.95;;;21.30;99.90;;;;;;4885965;29;20158;-94
2021/06/02 09:03:59;;;;;;;21.60;10.88;;;21.40;99.90;;;;;;4837727;29;20061;-94
2021/06/02 09:06:35;;;;;;;22.50;10.05;;;21.50;99.90;;;;;;4880360;29;20420;-94
2021/06/02 09:09:07;;;;;;;19.00;9.55;;;21.60;99.90;;;;;;4856459;29;20481;-93
2021/06/02 09:11:47;;;;;;;25.42;9.15;;;21.70;99.90;;;;;;4870423;29;20061;-94
2021/06/02 09:14:37;;;;;;;25.10;10.60;;;21.80;99.90;;;;;;4865880;29;20052;-94
2021/06/02 09:17:15;;;;;;;20.80;8.77;;;21.80;99.90;;;;;;4845460;29;20692;-95
2021/06/02 09:19:54;;;;;;;22.58;10.85;;;21.90;99.90;;;;;;4882058;29;20361;-95
2021/06/02 09:22:27;;;;;;;19.55;10.57;;;21.90;99.90;;;;;;4899515;29;20049;-94
2021/06/02 09:25:02;;;;;;;26.23;10.30;;;22.00;99.90;;;;;;4890883;29;20059;-94
2021/06/02 09:28:00;;;;;;;24.20;10.45;;;22.00;99.90;;;;;;4886192;29;20393;-92
2021/06/02 09:30:39;;;;;;;28.05;11.68;;;22.10;99.90;;;;;;4875963;29;20053;-95
2021/06/02 09:33:11;;;;;;;24.15;10.50;;;22.20;99.90;;;;;;4872650;29;20061;-95
2021/06/02 09:35:43;;;;;;;27.73;10.25;;;22.30;99.90;;;;;;4871578;29;20061;-92
2021/06/02 09:38:25;;;;;;;19.38;8.82;;;22.40;99.90;;;;;;4883745;29;20052;-93
2021/06/02 09:40:55;;;;;;;19.55;9.77;;;21.60;99.90;;;;;;4885867;29;20417;-95
2021/06/02 09:43:34;;;;;;;17.05;9.02;;;22.60;99.90;;;;;;4903436;29;20060;-95
2021/06/02 09:46:15;;;;;;;22.00;9.20;;;22.70;99.80;;;;;;4872943;29;20076;-93
2021/06/02 09:48:46;;;;;;;20.95;8.35;;;22.90;99.90;;;;;;4857009;29;20060;-94
2021/06/02 09:51:32;;;;;;;17.52;8.43;;;23.00;99.80;;;;;;4871926;29;20053;-94
2021/06/02 09:54:04;;;;;;;20.33;7.97;;;23.20;99.10;;;;;;4876402;29;20055;-93
2021/06/02 09:56:36;;;;;;;22.95;8.82;;;23.30;99.30;;;;;;4876328;29;20056;-93
2021/06/02 09:59:12;;;;;;;17.35;7.28;;;23.40;99.10;;;;;;4905142;29;20420;-94
2021/06/02 10:01:59;;;;;;;22.58;7.60;;;23.60;99.00;;;;;;4895338;29;20060;-92
2021/06/02 10:04:39;;;;;;;21.40;8.23;;;23.70;98.10;;;;;;4869696;29;20060;-90
2021/06/02 10:07:19;;;;;;;20.73;8.83;;;23.80;97.50;;;;;;4888677;29;20412;-89
2021/06/02 10:09:48;;;;;;;18.38;8.15;;;23.90;97.70;;;;;;4873640;29;20060;-91
2021/06/02 10:12:16;;;;;;;17.23;7.75;;;24.10;97.80;;;;;;4888636;29;20380;-91
2021/06/02 10:14:56;;;;;;;29.35;8.35;;;24.20;97.40;;;;;;4876763;29;20052;-91
2021/06/02 10:17:25;;;;;;;20.27;6.70;;;24.30;96.30;;;;;;4861837;29;20048;-91
2021/06/02 10:20:09;;;;;;;18.77;7.25;;;24.40;96.10;;;;;;4860408;29;20057;-91
2021/06/02 10:22:42;;;;;;;28.80;6.35;;;24.50;96.10;;;;;;4898448;29;20064;-91
2021/06/02 10:25:13;;;;;;;15.90;7.65;;;24.60;95.70;;;;;;4875542;29;20068;-90
2021/06/02 10:27:41;;;;;;;16.35;7.38;;;24.80;95.20;;;;;;4882118;29;20067;-92
2021/06/02 10:30:11;;;;;;;11.00;5.40;;;24.80;94.90;;;;;;4894824;29;20053;-91
2021/06/02 10:32:41;;;;;;;11.57;5.55;;;25.00;94.30;;;;;;4872060;29;20060;-92
2021/06/02 10:35:16;;;;;;;20.83;6.68;;;25.30;94.10;;;;;;4888447;29;20069;-92
2021/06/02 10:37:45;;;;;;;18.05;5.70;;;25.40;93.10;;;;;;4871728;29;20056;-91
2021/06/02 10:40:18;;;;;;;10.57;5.65;;;25.60;93.10;;;;;;4871113;29;20049;-90
2021/06/02 10:42:58;;;;;;;17.50;6.57;;;25.80;92.90;;;;;;4883977;29;20065;-91
2021/06/02 10:45:46;;;;;;;15.60;6.13;;;25.90;91.40;;;;;;4869925;29;20053;-92
2021/06/02 10:48:36;;;;;;;23.30;7.65;;;25.90;91.10;;;;;;4870273;29;20052;-92
2021/06/02 10:51:04;;;;;;;17.73;7.43;;;25.90;91.00;;;;;;4866157;29;20060;-90
2021/06/02 10:53:33;;;;;;;18.50;6.20;;;25.90;91.30;;;;;;4879132;29;20051;-91
2021/06/02 10:56:02;;;;;;;14.45;5.88;;;25.90;91.30;;;;;;4888327;29;20067;-93
2021/06/02 10:58:44;;;;;;;17.52;6.22;;;26.00;90.70;;;;;;4874754;29;20048;-90
2021/06/02 11:01:20;;;;;;;13.30;5.13;;;26.00;90.00;;;;;;4904499;29;20060;-93
2021/06/02 11:04:06;;;;;;;16.05;5.65;;;26.00;90.00;;;;;;4885295;29;20063;-91
2021/06/02 11:06:41;;;;;;;10.75;4.28;;;26.10;89.30;;;;;;4903462;29;20060;-91
2021/06/02 11:09:12;;;;;;;9.98;5.05;;;26.20;89.50;;;;;;4873105;29;20060;-92
2021/06/02 11:11:43;;;;;;;14.95;5.93;;;26.30;88.80;;;;;;4889490;29;20448;-91
2021/06/02 11:14:14;;;;;;;14.02;4.47;;;26.40;86.80;;;;;;4880138;29;20052;-91
2021/06/02 11:17:00;;;;;;;14.90;4.47;;;26.50;87.50;;;;;;4858263;29;20481;-93
2021/06/02 11:19:44;;;;;;;18.02;5.53;;;26.70;85.60;;;;;;4898381;29;20393;-90
2021/06/02 11:22:17;;;;;;;11.90;4.65;;;26.80;84.70;;;;;;4866602;29;20052;-92
2021/06/02 11:24:49;;;;;;;14.70;5.53;;;27.00;85.00;;;;;;4874480;29;20053;-92
2021/06/02 11:27:18;;;;;;;11.88;5.15;;;27.00;82.90;;;;;;4904014;29;20049;-92
2021/06/02 11:29:55;;;;;;;12.75;4.57;;;27.00;83.00;;;;;;4914397;29;20059;-91
2021/06/02 11:32:28;;;;;;;18.88;4.57;;;27.10;82.20;;;;;;4885535;29;20052;-90
2021/06/02 11:35:06;;;;;;;12.27;4.45;;;27.20;80.30;;;;;;4880763;29;20406;-91
2021/06/02 11:37:36;;;;;;;16.75;5.22;;;27.20;78.70;;;;;;4887210;29;20074;-91
2021/06/02 11:40:10;;;;;;;15.38;4.22;;;27.30;78.70;;;;;;4872400;29;20069;-91
2021/06/02 11:42:52;;;;;;;8.13;4.75;;;27.30;77.50;;;;;;4873935;29;20060;-91
2021/06/02 11:45:22;;;;;;;13.88;4.32;;;27.40;76.30;;;;;;4871544;29;20060;-91
2021/06/02 11:48:00;;;;;;;14.85;4.38;;;27.50;76.50;;;;;;4872341;29;20052;-93
2021/06/02 11:50:28;;;;;;;15.00;4.30;;;27.60;76.20;;;;;;4856194;29;20053;-91
2021/06/02 11:53:03;;;;;;;11.43;4.00;;;27.60;76.00;;;;;;4855885;29;20064;-92
2021/06/02 11:55:34;;;;;;;14.10;5.13;;;27.60;75.20;;;;;;4871487;29;20056;-91
2021/06/02 11:58:13;;;;;;;13.60;4.10;;;27.80;74.90;;;;;;4857024;29;20052;-90
2021/06/02 12:00:42;;;;;;;11.88;4.30;;;27.80;74.50;;;;;;4856037;29;20070;-90
2021/06/02 12:03:12;;;;;;;14.88;5.03;;;27.30;74.70;;;;;;4871745;29;20325;-93
2021/06/02 12:05:43;;;;;;;18.77;4.53;;;28.00;75.40;;;;;;4891714;29;20063;-91
2021/06/02 12:08:17;;;;;;;8.25;3.38;;;28.10;75.20;;;;;;4858950;29;20065;-92
2021/06/02 12:10:58;;;;;;;11.73;3.20;;;28.20;74.00;;;;;;4879415;29;20063;-92
2021/06/02 12:13:31;;;;;;;6.20;2.83;;;28.40;72.00;;;;;;4884316;29;20057;-91
2021/06/02 12:16:12;;;;;;;9.95;3.80;;;28.60;71.30;;;;;;4868015;29;20057;-92
2021/06/02 12:18:41;;;;;;;14.32;4.03;;;28.70;70.90;;;;;;4866717;29;20056;-92
2021/06/02 12:21:12;;;;;;;10.52;4.57;;;28.80;70.30;;;;;;4867855;29;20052;-92
2021/06/02 12:23:46;;;;;;;8.63;3.55;;;28.70;70.70;;;;;;4856076;29;20064;-91
2021/06/02 12:26:37;;;;;;;11.48;4.40;;;28.70;71.10;;;;;;4877192;29;20049;-91
2021/06/02 12:29:12;;;;;;;9.98;4.55;;;28.80;70.30;;;;;;4884057;29;20071;-92
2021/06/02 12:31:48;;;;;;;11.35;3.55;;;28.70;70.40;;;;;;4869419;29;20083;-92
2021/06/02 12:34:27;;;;;;;10.05;4.45;;;28.80;70.50;;;;;;4873644;29;20071;-92
2021/06/02 12:36:57;;;;;;;13.02;4.40;;;28.70;69.00;;;;;;4881615;29;20059;-91
2021/06/02 12:39:32;;;;;;;14.27;4.07;;;28.80;69.60;;;;;;4886389;29;20088;-91
2021/06/02 12:42:03;;;;;;;7.88;3.47;;;28.90;68.50;;;;;;4853648;29;20413;-91
2021/06/02 12:44:40;;;;;;;10.87;3.20;;;29.00;66.30;;;;;;4897740;29;20060;-91
2021/06/02 12:47:11;;;;;;;9.73;4.00;;;29.20;66.00;;;;;;4872485;29;20063;-90
2021/06/02 12:49:42;;;;;;;7.90;3.80;;;29.40;67.20;;;;;;4865699;29;20053;-91
2021/06/02 12:52:24;;;;;;;;;;;29.60;64.80;;;;;;4870367;29;20644;-94
2021/06/02 12:54:53;;;;;;;8.70;3.58;;;29.60;64.00;;;;;;4872481;29;19932;-91
2021/06/02 12:57:22;;;;;;;10.10;3.63;;;29.70;63.80;;;;;;4887300;29;20052;-91
2021/06/02 12:59:52;;;;;;;7.05;2.58;;;30.50;63.00;;;;;;4858948;29;20048;-90
2021/06/02 13:02:20;;;;;;;7.95;2.78;;;29.80;61.50;;;;;;4874331;29;20060;-91
2021/06/02 13:04:48;;;;;;;7.47;3.13;;;29.80;61.00;;;;;;4882845;29;20044;-90
2021/06/02 13:07:36;;;;;;;12.43;2.97;;;29.80;60.70;;;;;;4871042;29;20508;-91
2021/06/02 13:10:28;;;;;;;8.63;3.03;;;29.80;60.90;;;;;;4873634;29;20052;-93
2021/06/02 13:13:00;;;;;;;9.88;3.00;;;29.80;60.90;;;;;;4889963;29;20644;-92
2021/06/02 13:15:34;;;;;;;7.15;3.33;;;29.60;60.10;;;;;;4874102;29;20410;-89
2021/06/02 13:18:18;;;;;;;8.57;2.75;;;29.60;60.00;;;;;;4888977;29;20053;-91
2021/06/02 13:20:47;;;;;;;14.02;4.05;;;29.30;59.10;;;;;;4884977;29;20037;-92
2021/06/02 13:23:19;;;;;;;18.45;4.03;;;29.80;60.00;;;;;;4888247;29;20062;-92
2021/06/02 13:25:59;;;;;;;;;;;30.00;59.40;;;;;;4887859;29;20052;-93
2021/06/02 13:28:33;;;;;;;12.60;4.28;;;29.90;58.10;;;;;;4873606;29;19924;-91
2021/06/02 13:31:02;;;;;;;10.63;3.42;;;30.10;59.50;;;;;;4857667;29;20052;-92
2021/06/02 13:33:40;;;;;;;11.55;3.15;;;30.30;58.70;;;;;;4865443;29;20059;-93
2021/06/02 13:36:16;;;;;;;12.48;3.80;;;30.20;58.00;;;;;;4855780;29;20487;-91
2021/06/02 13:38:49;;;;;;;13.23;3.88;;;30.40;58.00;;;;;;4871248;29;20060;-90
2021/06/02 13:41:23;;;;;;;10.50;2.85;;;30.60;57.30;;;;;;4886799;29;20048;-92
2021/06/02 13:43:53;;;;;;;12.23;4.00;;;30.70;57.10;;;;;;4870966;29;20052;-91
2021/06/02 13:46:26;;;;;;;5.95;2.60;;;30.90;57.40;;;;;;4862813;29;20057;-91
2021/06/02 13:48:55;;;;;;;15.43;3.13;;;31.00;57.00;;;;;;4839391;29;20060;-90
2021/06/02 13:51:29;;;;;;;9.05;2.80;;;31.20;56.30;;;;;;4861492;29;20060;-91
2021/06/02 13:54:34;;;;;;;7.32;3.17;;;31.30;55.80;;;;;;4867403;29;20072;-92
2021/06/02 13:57:06;;;;;;;12.45;4.55;;;31.10;54.20;;;;;;4778853;29;20070;-92
2021/06/02 13:59:44;;;;;;;8.82;2.67;;;31.00;55.30;;;;;;4842373;29;20406;-92
2021/06/02 14:02:28;;;;;;;7.80;2.42;;;30.80;54.60;;;;;;4856287;29;20053;-86